Disclaimer

Please do not use the information listed here in-flight or in-navigation, as they are not provided to us by the airports but are provided by volunteers, so they might be outdated.

Search


Regions


Airport information page

No radio frequency information is available.

Airport informations:
Latitude: 56° 55' 25.00" N
Longitude: 023° 58' 16.00" E
Elevation: 34 feet - 10 meters
Operating hours: N/A
Operating agency: Civil government, landing fees and diplomatic clearance may be required
Timezone: UTC+2(+3DT) - Last Sunday in March to last Sunday in October
Fuel: Jet A1, without icing nhibitor.

100/130 MIL Spec, low lead, aviation gasoline (BLUE)

Runway information:
18/36 - 8366 x 148 feet< - >2550 x 45 meters

Recent METARs:
EVRA 192050Z 09005KT 040V120 9999 OVC019 02/M02 Q1035 R36/090095 NOSIG
EVRA 192120Z 09005KT 050V120 9999 OVC019 01/M02 Q1035 R36/090095 NOSIG
EVRA 192150Z 08007KT 9999 OVC018 01/M02 Q1035 R36/090095 NOSIG

Airport on the map: